createdAt,value
2022-12-07T00:01:44.338Z,100.00
2022-12-07T00:04:13.741Z,100.00
2022-12-07T00:06:42.887Z,100.00
2022-12-07T00:09:16.295Z,100.00
2022-12-07T00:11:44.682Z,100.00
2022-12-07T00:14:15.101Z,100.00
2022-12-07T00:16:42.754Z,100.00
2022-12-07T00:19:12.027Z,100.00
2022-12-07T00:21:39.229Z,100.00
2022-12-07T00:24:06.740Z,100.00
2022-12-07T00:26:39.210Z,100.00
2022-12-07T00:29:12.141Z,100.00
2022-12-07T00:31:39.233Z,100.00
2022-12-07T00:34:07.224Z,100.00
2022-12-07T00:36:33.827Z,100.00
2022-12-07T00:39:02.583Z,100.00
2022-12-07T00:41:30.066Z,100.00
2022-12-07T00:43:57.552Z,100.00
2022-12-07T00:46:24.788Z,100.00
2022-12-07T00:48:53.431Z,100.00
2022-12-07T00:51:22.777Z,100.00
2022-12-07T00:53:49.958Z,100.00
2022-12-07T00:56:25.820Z,100.00
2022-12-07T00:58:56.462Z,99.99
2022-12-07T01:01:24.800Z,99.93
2022-12-07T01:03:51.697Z,99.97
2022-12-07T01:06:20.322Z,99.94
2022-12-07T01:08:47.135Z,99.94
2022-12-07T01:11:16.730Z,99.94
2022-12-07T01:13:44.499Z,99.97
2022-12-07T01:16:14.554Z,99.97
2022-12-07T01:18:41.955Z,99.97
2022-12-07T01:21:15.454Z,99.93
2022-12-07T01:23:43.038Z,99.98
2022-12-07T01:26:15.946Z,99.92
2022-12-07T01:28:43.283Z,99.97
2022-12-07T01:31:16.081Z,99.98
2022-12-07T01:33:45.054Z,100.00
2022-12-07T01:36:21.532Z,100.00
2022-12-07T01:38:53.509Z,100.00
2022-12-07T01:41:21.775Z,100.00
2022-12-07T01:44:22.456Z,99.98
2022-12-07T01:46:56.159Z,99.99
2022-12-07T01:49:49.059Z,100.00
2022-12-07T01:52:30.838Z,100.00
2022-12-07T01:55:11.630Z,100.00
2022-12-07T01:57:43.882Z,100.00
2022-12-07T02:00:11.869Z,100.00
2022-12-07T02:02:56.422Z,100.00
2022-12-07T02:05:25.376Z,100.00
2022-12-07T02:07:55.296Z,100.00
2022-12-07T02:10:25.453Z,100.00
2022-12-07T02:13:01.244Z,100.00
2022-12-07T02:16:10.033Z,100.00
2022-12-07T02:19:09.401Z,100.00
2022-12-07T02:21:48.584Z,100.00
2022-12-07T02:24:54.526Z,100.00
2022-12-07T02:27:37.078Z,100.00
2022-12-07T02:30:13.386Z,100.00
2022-12-07T02:32:49.119Z,100.00
2022-12-07T02:35:24.808Z,100.00
2022-12-07T02:38:19.511Z,100.00
2022-12-07T02:40:57.962Z,100.00
2022-12-07T02:43:26.597Z,100.00
2022-12-07T02:45:58.092Z,100.00
2022-12-07T02:48:26.582Z,100.00
2022-12-07T02:50:54.543Z,100.00
2022-12-07T02:53:35.744Z,100.00
2022-12-07T02:56:22.835Z,100.00
2022-12-07T02:58:58.918Z,100.00
2022-12-07T03:01:48.800Z,100.00
2022-12-07T03:04:24.343Z,100.00
2022-12-07T03:07:05.814Z,100.00
2022-12-07T03:09:49.398Z,100.00
2022-12-07T03:12:42.110Z,100.00
2022-12-07T03:15:31.351Z,100.00
2022-12-07T03:18:02.016Z,100.00
2022-12-07T03:20:30.332Z,100.00
2022-12-07T03:22:58.910Z,100.00
2022-12-07T03:25:27.284Z,100.00
2022-12-07T03:28:00.407Z,100.00
2022-12-07T03:30:33.595Z,100.00
2022-12-07T03:33:16.105Z,100.00
2022-12-07T03:35:52.781Z,100.00
2022-12-07T03:38:27.830Z,100.00
2022-12-07T03:41:09.201Z,100.00
2022-12-07T03:43:37.430Z,100.00
2022-12-07T03:46:35.141Z,100.00
2022-12-07T03:49:09.302Z,100.00
2022-12-07T03:52:09.567Z,100.00
2022-12-07T03:54:45.279Z,100.00
2022-12-07T03:57:13.238Z,100.00
2022-12-07T03:59:40.629Z,100.00
2022-12-07T04:02:09.406Z,100.00
2022-12-07T04:04:36.224Z,100.00
2022-12-07T04:07:03.220Z,100.00
2022-12-07T04:09:30.014Z,100.00
2022-12-07T04:11:56.663Z,100.00
2022-12-07T04:14:23.488Z,100.00
2022-12-07T04:16:54.444Z,100.00
2022-12-07T04:19:23.582Z,100.00
2022-12-07T04:21:50.499Z,100.00
2022-12-07T04:24:17.311Z,100.00
2022-12-07T04:26:45.886Z,100.00
2022-12-07T04:29:13.356Z,100.00
2022-12-07T04:31:40.292Z,100.00
2022-12-07T04:34:07.105Z,100.00
2022-12-07T04:36:34.132Z,100.00
2022-12-07T04:39:01.683Z,100.00
2022-12-07T04:41:28.429Z,100.00
2022-12-07T04:43:56.474Z,100.00
2022-12-07T04:46:25.851Z,100.00
2022-12-07T04:48:53.829Z,100.00
2022-12-07T04:51:23.132Z,100.00
2022-12-07T04:53:49.973Z,100.00
2022-12-07T04:56:17.851Z,100.00
2022-12-07T04:58:46.509Z,100.00
2022-12-07T05:01:14.824Z,100.00
2022-12-07T05:03:41.673Z,100.00
2022-12-07T05:06:13.441Z,100.00
2022-12-07T05:08:40.911Z,100.00
2022-12-07T05:11:08.544Z,100.00
2022-12-07T05:13:36.467Z,100.00
2022-12-07T05:16:03.353Z,100.00
2022-12-07T05:18:30.198Z,100.00
2022-12-07T05:20:56.919Z,100.00
2022-12-07T05:23:23.609Z,100.00
2022-12-07T05:25:50.744Z,100.00
2022-12-07T05:28:17.562Z,100.00
2022-12-07T05:30:44.342Z,100.00
2022-12-07T05:33:11.200Z,100.00
2022-12-07T05:35:38.243Z,100.00
2022-12-07T05:38:04.962Z,100.00
2022-12-07T05:40:31.785Z,100.00
2022-12-07T05:43:03.998Z,100.00
2022-12-07T05:45:31.569Z,100.00
2022-12-07T05:47:58.391Z,100.00
2022-12-07T05:50:25.453Z,100.00
2022-12-07T05:53:00.862Z,100.00
2022-12-07T05:55:27.624Z,100.00
2022-12-07T05:58:13.083Z,100.00
2022-12-07T06:00:39.828Z,100.00
2022-12-07T06:03:06.613Z,100.00
2022-12-07T06:05:33.466Z,100.00
2022-12-07T06:08:05.448Z,100.00
2022-12-07T06:10:32.839Z,100.00
2022-12-07T06:12:59.663Z,100.00
2022-12-07T06:15:26.514Z,100.00
2022-12-07T06:17:53.155Z,100.00
2022-12-07T06:20:20.574Z,100.00
2022-12-07T06:22:47.331Z,100.00
2022-12-07T06:25:14.080Z,100.00
2022-12-07T06:27:40.808Z,100.00
2022-12-07T06:30:08.920Z,100.00
2022-12-07T06:32:37.557Z,100.00
2022-12-07T06:35:05.303Z,100.00
2022-12-07T06:37:32.170Z,100.00
2022-12-07T06:39:59.002Z,100.00
2022-12-07T06:42:25.832Z,100.00
2022-12-07T06:44:52.668Z,100.00
2022-12-07T06:50:08.034Z,100.00
2022-12-07T06:52:35.185Z,100.00
2022-12-07T06:55:02.051Z,100.00
2022-12-07T06:57:28.699Z,100.00
2022-12-07T06:59:55.592Z,100.00
2022-12-07T07:02:23.137Z,100.00
2022-12-07T07:04:50.014Z,100.00
2022-12-07T07:07:17.006Z,100.00
2022-12-07T07:09:43.765Z,100.00
2022-12-07T07:12:10.532Z,100.00
2022-12-07T07:14:37.322Z,100.00
2022-12-07T07:17:04.354Z,100.00
2022-12-07T07:19:31.483Z,100.00
2022-12-07T07:21:58.351Z,100.00
2022-12-07T07:24:25.052Z,100.00
2022-12-07T07:26:51.703Z,100.00
2022-12-07T07:29:18.329Z,100.00
2022-12-07T07:31:45.159Z,100.00
2022-12-07T07:34:11.838Z,100.00
2022-12-07T07:36:39.752Z,100.00
2022-12-07T07:39:06.827Z,100.00
2022-12-07T07:41:33.640Z,100.00
2022-12-07T07:44:02.703Z,100.00
2022-12-07T07:46:29.699Z,100.00
2022-12-07T07:48:56.570Z,100.00
2022-12-07T07:51:25.480Z,100.00
2022-12-07T07:53:52.283Z,100.00
2022-12-07T07:56:18.987Z,100.00
2022-12-07T07:58:45.799Z,100.00
2022-12-07T08:01:13.972Z,100.00
2022-12-07T08:03:40.887Z,100.00
2022-12-07T08:06:07.661Z,100.00
2022-12-07T08:08:34.449Z,100.00
2022-12-07T08:11:01.876Z,100.00
2022-12-07T08:13:31.230Z,100.00
2022-12-07T08:15:59.029Z,100.00
2022-12-07T08:18:25.902Z,100.00
2022-12-07T08:20:52.604Z,100.00
2022-12-07T08:23:19.347Z,100.00
2022-12-07T08:25:46.058Z,100.00
2022-12-07T08:28:12.648Z,100.00
2022-12-07T08:30:39.566Z,100.00
2022-12-07T08:33:06.228Z,100.00
2022-12-07T08:35:34.527Z,100.00
2022-12-07T08:38:02.590Z,100.00
2022-12-07T08:40:29.706Z,100.00
2022-12-07T08:42:56.431Z,100.00
2022-12-07T08:45:27.131Z,100.00
2022-12-07T08:48:02.858Z,100.00
2022-12-07T08:50:29.894Z,100.00
2022-12-07T08:52:59.603Z,100.00
2022-12-07T08:55:27.842Z,100.00
2022-12-07T08:57:55.190Z,100.00
2022-12-07T09:00:22.139Z,100.00
2022-12-07T09:02:48.936Z,100.00
2022-12-07T09:05:16.930Z,100.00
2022-12-07T09:07:46.870Z,100.00
2022-12-07T09:10:13.713Z,100.00
2022-12-07T09:12:40.588Z,100.00
2022-12-07T09:15:08.540Z,100.00
2022-12-07T09:17:36.559Z,99.63
2022-12-07T09:20:06.301Z,99.03
2022-12-07T09:22:34.107Z,98.37
2022-12-07T09:25:02.023Z,98.54
2022-12-07T09:27:29.137Z,98.51
2022-12-07T09:29:55.801Z,98.67
2022-12-07T09:32:22.710Z,98.39
2022-12-07T09:34:49.519Z,98.11
2022-12-07T09:37:16.358Z,97.73
2022-12-07T09:39:49.474Z,97.77
2022-12-07T09:42:28.708Z,97.63
2022-12-07T09:44:56.515Z,97.57
2022-12-07T09:47:23.240Z,97.72
2022-12-07T09:49:49.989Z,97.80
2022-12-07T09:52:27.136Z,97.69
2022-12-07T09:54:53.818Z,97.44
2022-12-07T09:57:31.946Z,97.34
2022-12-07T10:00:03.780Z,97.00
2022-12-07T10:02:42.259Z,96.86
2022-12-07T10:05:24.415Z,96.76
2022-12-07T10:07:51.918Z,96.76
2022-12-07T10:10:25.259Z,96.37
2022-12-07T10:13:02.411Z,96.13
2022-12-07T10:16:05.066Z,95.73
2022-12-07T10:18:39.440Z,95.32
2022-12-07T10:21:08.000Z,94.09
2022-12-07T10:23:36.155Z,93.08
2022-12-07T10:26:47.339Z,92.08
2022-12-07T10:29:29.634Z,91.54
2022-12-07T10:31:59.339Z,91.39
2022-12-07T10:34:42.021Z,89.15
2022-12-07T10:37:09.457Z,87.12
2022-12-07T10:39:46.192Z,85.97
2022-12-07T10:42:24.157Z,85.45
2022-12-07T10:45:15.789Z,84.30
2022-12-07T10:47:45.491Z,85.13
2022-12-07T10:50:33.632Z,85.47
2022-12-07T10:53:28.162Z,82.57
2022-12-07T10:56:19.587Z,79.79
2022-12-07T10:59:07.775Z,80.20
2022-12-07T11:01:43.406Z,79.85
2022-12-07T11:04:31.850Z,79.11
2022-12-07T11:07:02.464Z,79.37
2022-12-07T11:13:12.513Z,79.83
2022-12-07T11:16:01.781Z,80.94
2022-12-07T11:18:38.391Z,78.10
2022-12-07T11:21:23.164Z,75.59
2022-12-07T11:24:12.763Z,75.72
2022-12-07T11:26:42.432Z,76.62
2022-12-07T11:30:11.379Z,77.54
2022-12-07T11:32:51.004Z,77.38
2022-12-07T11:35:23.603Z,77.91
2022-12-07T11:37:55.538Z,76.79
2022-12-07T11:40:36.462Z,75.40
2022-12-07T11:43:21.967Z,76.52
2022-12-07T11:46:15.185Z,76.95
2022-12-07T11:48:48.094Z,76.55
2022-12-07T11:51:18.746Z,76.75
2022-12-07T11:53:52.871Z,76.08
2022-12-07T11:56:27.731Z,72.91
2022-12-07T11:59:01.196Z,71.46
2022-12-07T12:01:45.009Z,72.37
2022-12-07T12:04:11.669Z,71.55
2022-12-07T12:06:41.216Z,72.23
2022-12-07T12:15:31.674Z,71.22
2022-12-07T12:17:58.410Z,70.12
2022-12-07T12:20:40.215Z,69.99
2022-12-07T12:23:13.829Z,70.27
2022-12-07T12:25:47.167Z,70.43
2022-12-07T12:28:45.301Z,70.72
2022-12-07T12:31:21.944Z,70.77
2022-12-07T12:34:03.272Z,71.38
2022-12-07T12:36:44.664Z,69.80
2022-12-07T12:39:15.805Z,70.10
2022-12-07T12:41:48.584Z,70.09
2022-12-07T12:44:15.275Z,69.09
2022-12-07T12:47:02.392Z,69.74
2022-12-07T12:49:29.154Z,70.09
2022-12-07T12:52:29.851Z,70.68
2022-12-07T12:55:02.569Z,69.62
2022-12-07T12:57:32.006Z,68.95
2022-12-07T13:00:00.610Z,68.71
2022-12-07T13:02:47.726Z,69.42
2022-12-07T13:05:23.653Z,70.66
2022-12-07T13:07:55.357Z,71.51
2022-12-07T13:10:31.166Z,70.92
2022-12-07T13:13:03.651Z,71.19
2022-12-07T13:15:42.986Z,72.17
2022-12-07T13:18:22.366Z,72.79
2022-12-07T13:20:54.547Z,73.19
2022-12-07T13:23:28.428Z,73.05
2022-12-07T13:26:04.539Z,72.99
2022-12-07T13:28:41.061Z,73.23
2022-12-07T13:31:35.464Z,73.63
2022-12-07T13:34:04.630Z,74.49
2022-12-07T13:36:36.616Z,75.08
2022-12-07T13:39:15.834Z,75.28
2022-12-07T13:41:43.283Z,75.35
2022-12-07T13:44:13.667Z,75.75
2022-12-07T13:46:59.803Z,76.01
2022-12-07T13:49:30.985Z,76.38
2022-12-07T13:52:31.205Z,76.55
2022-12-07T13:55:07.157Z,76.85
2022-12-07T13:57:36.285Z,77.21
2022-12-07T14:00:07.250Z,77.24
2022-12-07T14:02:37.906Z,77.59
2022-12-07T14:05:11.117Z,78.02
2022-12-07T14:07:57.186Z,78.29
2022-12-07T14:10:31.734Z,78.54
2022-12-07T14:12:59.484Z,78.89
2022-12-07T14:15:30.967Z,79.21
2022-12-07T14:17:59.314Z,79.54
2022-12-07T14:20:44.049Z,79.86
2022-12-07T14:23:26.091Z,80.10
2022-12-07T14:25:54.444Z,80.31
2022-12-07T14:28:40.431Z,80.54
2022-12-07T14:31:23.711Z,80.81
2022-12-07T14:33:51.943Z,80.96
2022-12-07T14:36:18.667Z,81.25
2022-12-07T14:38:45.466Z,81.61
2022-12-07T14:41:40.631Z,81.88
2022-12-07T14:44:34.158Z,82.32
2022-12-07T14:49:47.372Z,83.11
2022-12-07T14:55:14.193Z,84.15
2022-12-07T14:57:40.879Z,84.48
2022-12-07T15:00:11.451Z,84.60
2022-12-07T15:02:38.120Z,85.05
2022-12-07T15:05:08.757Z,85.54
2022-12-07T15:07:37.905Z,85.87
2022-12-07T15:10:05.299Z,86.05
2022-12-07T15:12:32.067Z,85.98
2022-12-07T15:14:58.801Z,85.90
2022-12-07T15:17:31.743Z,86.41
2022-12-07T15:19:59.177Z,86.71
2022-12-07T15:22:25.975Z,87.08
2022-12-07T15:24:52.716Z,87.55
2022-12-07T15:27:19.373Z,87.74
2022-12-07T15:29:46.882Z,87.88
2022-12-07T15:32:13.664Z,88.04
2022-12-07T15:34:40.886Z,88.10
2022-12-07T15:37:08.701Z,88.15
2022-12-07T15:39:37.190Z,88.52
2022-12-07T15:42:04.244Z,88.88
2022-12-07T15:44:49.552Z,89.11
2022-12-07T15:47:16.222Z,89.15
2022-12-07T15:49:43.339Z,89.18
2022-12-07T15:52:10.102Z,89.51
2022-12-07T15:54:37.056Z,90.07
2022-12-07T15:57:03.793Z,90.32
2022-12-07T15:59:30.497Z,90.14
2022-12-07T16:01:57.610Z,89.96
2022-12-07T16:04:24.555Z,89.89
2022-12-07T16:06:51.443Z,90.18
2022-12-07T16:09:19.212Z,90.26
2022-12-07T16:11:45.981Z,90.26
2022-12-07T16:14:12.798Z,90.36
2022-12-07T16:16:40.675Z,90.32
2022-12-07T16:19:08.430Z,90.20
2022-12-07T16:21:36.196Z,90.25
2022-12-07T16:24:03.821Z,90.51
2022-12-07T16:26:30.868Z,90.75
2022-12-07T16:28:57.998Z,90.87
2022-12-07T16:31:27.766Z,90.88
2022-12-07T16:33:56.964Z,90.90
2022-12-07T16:36:54.941Z,91.02
2022-12-07T16:39:12.937Z,91.51
2022-12-07T16:41:39.796Z,91.52
2022-12-07T16:44:09.834Z,91.85
2022-12-07T16:46:37.099Z,91.85
2022-12-07T16:49:04.869Z,91.87
2022-12-07T16:51:32.032Z,92.05
2022-12-07T16:53:59.099Z,92.26
2022-12-07T16:56:26.963Z,92.26
2022-12-07T16:58:55.068Z,92.45
2022-12-07T17:01:22.966Z,92.47
2022-12-07T17:03:50.983Z,92.53
2022-12-07T17:06:20.736Z,92.94
2022-12-07T17:08:48.579Z,93.11
2022-12-07T17:11:18.243Z,93.14
2022-12-07T17:14:03.557Z,93.34
2022-12-07T17:16:31.060Z,93.36
2022-12-07T17:18:58.475Z,93.43
2022-12-07T17:21:25.703Z,93.62
2022-12-07T17:23:52.450Z,93.80
2022-12-07T17:26:24.570Z,94.04
2022-12-07T17:28:51.364Z,94.25
2022-12-07T17:31:20.800Z,94.26
2022-12-07T17:33:47.910Z,94.15
2022-12-07T17:36:17.273Z,94.09
2022-12-07T17:38:44.919Z,94.27
2022-12-07T17:41:39.509Z,94.44
2022-12-07T17:44:11.648Z,95.17
2022-12-07T17:46:38.946Z,95.58
2022-12-07T17:49:06.769Z,95.51
2022-12-07T17:51:52.566Z,95.40
2022-12-07T17:54:20.085Z,95.26
2022-12-07T17:56:47.145Z,95.21
2022-12-07T17:59:14.104Z,95.24
2022-12-07T18:01:41.835Z,95.51
2022-12-07T18:04:08.606Z,96.17
2022-12-07T18:06:35.364Z,96.42
2022-12-07T18:09:03.394Z,96.31
2022-12-07T18:11:30.510Z,96.31
2022-12-07T18:13:57.239Z,96.12
2022-12-07T18:16:27.146Z,95.98
2022-12-07T18:18:54.105Z,95.82
2022-12-07T18:21:23.603Z,95.76
2022-12-07T18:23:53.000Z,95.62
2022-12-07T18:26:21.554Z,95.67
2022-12-07T18:28:49.005Z,95.86
2022-12-07T18:31:16.736Z,96.08
2022-12-07T18:33:45.784Z,96.09
2022-12-07T18:36:14.267Z,95.99
2022-12-07T18:38:41.377Z,95.99
2022-12-07T18:41:11.555Z,96.03
2022-12-07T18:43:38.666Z,96.22
2022-12-07T18:46:14.392Z,96.52
2022-12-07T18:48:41.225Z,96.51
2022-12-07T18:51:10.629Z,96.43
2022-12-07T18:53:37.343Z,96.36
2022-12-07T18:56:25.232Z,96.41
2022-12-07T18:59:14.051Z,96.83
2022-12-07T19:01:42.742Z,96.93
2022-12-07T19:04:10.332Z,97.25
2022-12-07T19:06:37.718Z,97.48
2022-12-07T19:09:04.739Z,97.41
2022-12-07T19:11:51.720Z,97.36
2022-12-07T19:14:26.541Z,97.32
2022-12-07T19:16:59.064Z,97.66
2022-12-07T19:19:31.977Z,97.51
2022-12-07T19:21:59.603Z,97.49
2022-12-07T19:24:26.839Z,97.91
2022-12-07T19:26:53.654Z,98.01
2022-12-07T19:29:20.485Z,98.09
2022-12-07T19:31:47.614Z,97.98
2022-12-07T19:34:16.792Z,97.94
2022-12-07T19:36:45.244Z,97.92
2022-12-07T19:39:15.129Z,97.92
2022-12-07T19:41:44.691Z,97.88
2022-12-07T19:44:22.273Z,97.92
2022-12-07T19:46:52.263Z,97.98
2022-12-07T19:49:20.988Z,98.05
2022-12-07T19:51:53.098Z,98.10
2022-12-07T19:54:22.369Z,98.06
2022-12-07T19:56:50.360Z,98.70
2022-12-07T19:59:18.988Z,99.32
2022-12-07T20:01:46.027Z,99.41
2022-12-07T20:04:19.086Z,99.41
2022-12-07T20:06:48.573Z,99.62
2022-12-07T20:09:15.656Z,99.76
2022-12-07T20:12:01.968Z,99.76
2022-12-07T20:14:29.990Z,99.62
2022-12-07T20:16:57.460Z,99.53
2022-12-07T20:19:24.556Z,99.40
2022-12-07T20:21:51.923Z,99.33
2022-12-07T20:24:22.131Z,99.13
2022-12-07T20:26:50.868Z,98.97
2022-12-07T20:29:21.118Z,99.22
2022-12-07T20:31:48.677Z,99.15
2022-12-07T20:34:15.540Z,99.09
2022-12-07T20:36:42.499Z,99.04
2022-12-07T20:39:09.848Z,98.84
2022-12-07T20:41:56.456Z,98.91
2022-12-07T20:44:23.352Z,99.20
2022-12-07T20:46:50.330Z,99.31
2022-12-07T20:49:17.849Z,99.32
2022-12-07T20:51:45.094Z,99.30
2022-12-07T20:54:12.873Z,99.50
2022-12-07T20:56:40.331Z,99.57
2022-12-07T20:59:10.657Z,99.48
2022-12-07T21:01:37.545Z,99.33
2022-12-07T21:04:04.667Z,99.28
2022-12-07T21:06:31.389Z,99.26
2022-12-07T21:08:59.727Z,99.25
2022-12-07T21:11:28.801Z,99.21
2022-12-07T21:13:55.635Z,99.12
2022-12-07T21:16:30.444Z,99.05
2022-12-07T21:19:01.705Z,98.99
2022-12-07T21:21:29.916Z,99.09
2022-12-07T21:24:02.061Z,99.33
2022-12-07T21:26:32.984Z,99.31
2022-12-07T21:28:59.581Z,99.17
2022-12-07T21:31:26.429Z,99.36
2022-12-07T21:33:53.296Z,99.89
2022-12-07T21:36:23.806Z,100.00
2022-12-07T21:38:50.855Z,100.00
2022-12-07T21:41:26.168Z,100.00
2022-12-07T21:43:53.533Z,100.00
2022-12-07T21:46:22.166Z,99.97
2022-12-07T21:48:51.276Z,99.97
2022-12-07T21:51:20.459Z,100.00
2022-12-07T21:53:48.742Z,100.00
2022-12-07T21:56:22.311Z,100.00
2022-12-07T21:58:50.539Z,99.98
2022-12-07T22:01:29.800Z,99.96
2022-12-07T22:03:56.608Z,100.00
2022-12-07T22:06:24.969Z,99.99
2022-12-07T22:08:53.448Z,99.85
2022-12-07T22:11:20.322Z,99.76
2022-12-07T22:14:10.223Z,99.63
2022-12-07T22:16:39.153Z,99.44
2022-12-07T22:19:07.349Z,99.31
2022-12-07T22:21:35.020Z,99.27
2022-12-07T22:24:03.056Z,99.28
2022-12-07T22:26:30.016Z,99.13
2022-12-07T22:28:56.662Z,99.10
2022-12-07T22:31:24.110Z,99.15
2022-12-07T22:33:51.777Z,99.12
2022-12-07T22:36:19.067Z,99.03
2022-12-07T22:38:46.482Z,98.97
2022-12-07T22:41:24.318Z,98.88
2022-12-07T22:43:51.907Z,98.83
2022-12-07T22:46:18.727Z,98.88
2022-12-07T22:48:45.674Z,99.01
2022-12-07T22:51:25.599Z,99.16
2022-12-07T22:53:53.324Z,98.98
2022-12-07T22:56:20.776Z,99.02
2022-12-07T22:58:48.228Z,99.16
2022-12-07T23:01:17.428Z,99.16
2022-12-07T23:03:45.078Z,99.19
2022-12-07T23:06:16.368Z,99.22
2022-12-07T23:08:44.219Z,99.34
2022-12-07T23:11:38.007Z,99.30
2022-12-07T23:14:14.928Z,99.38
2022-12-07T23:16:42.586Z,99.41
2022-12-07T23:19:10.032Z,99.27
2022-12-07T23:21:36.771Z,99.19
2022-12-07T23:24:03.897Z,99.15
2022-12-07T23:26:30.622Z,99.25
2022-12-07T23:28:57.835Z,99.31
2022-12-07T23:31:25.577Z,99.45
2022-12-07T23:33:52.307Z,99.59
2022-12-07T23:36:24.938Z,99.76
2022-12-07T23:38:52.777Z,99.97
2022-12-07T23:41:22.163Z,99.86
2022-12-07T23:43:49.277Z,99.74
2022-12-07T23:46:18.375Z,99.60
2022-12-07T23:48:46.472Z,99.48
2022-12-07T23:51:14.466Z,99.29
2022-12-07T23:53:43.526Z,99.14
2022-12-07T23:56:16.108Z,99.04
2022-12-07T23:58:43.080Z,99.06
